createdAt,value
2018-01-13T00:00:49.768Z,22.80
2018-01-13T00:03:16.240Z,24.65
2018-01-13T00:05:42.648Z,24.33
2018-01-13T00:08:09.104Z,23.05
2018-01-13T00:10:35.626Z,21.17
2018-01-13T00:13:02.861Z,24.17
2018-01-13T00:15:29.285Z,24.30
2018-01-13T00:17:55.708Z,25.65
2018-01-13T00:20:22.252Z,24.65
2018-01-13T00:22:48.702Z,24.50
2018-01-13T00:25:15.117Z,25.27
2018-01-13T00:27:41.557Z,22.85
2018-01-13T00:30:07.978Z,23.38
2018-01-13T00:32:34.432Z,21.33
2018-01-13T00:35:00.885Z,24.08
2018-01-13T00:37:27.317Z,23.12
2018-01-13T00:39:54.583Z,22.80
2018-01-13T00:42:20.991Z,22.48
2018-01-13T00:44:47.460Z,22.80
2018-01-13T00:47:13.868Z,23.08
2018-01-13T00:49:40.282Z,23.08
2018-01-13T00:52:06.943Z,23.75
2018-01-13T00:54:33.346Z,23.38
2018-01-13T00:56:59.752Z,22.60
2018-01-13T00:59:26.165Z,24.15
2018-01-13T01:01:52.597Z,24.73
2018-01-13T01:04:19.879Z,22.45
2018-01-13T01:06:46.280Z,23.87
2018-01-13T01:09:12.697Z,24.50
2018-01-13T01:11:39.136Z,22.77
2018-01-13T01:14:05.536Z,22.73
2018-01-13T01:16:32.017Z,24.50
2018-01-13T01:18:58.484Z,25.50
2018-01-13T01:21:24.872Z,23.02
2018-01-13T01:23:51.288Z,22.13
2018-01-13T01:26:17.742Z,22.60
2018-01-13T01:28:44.164Z,23.83
2018-01-13T01:31:10.578Z,24.87
2018-01-13T01:33:37.062Z,22.55
2018-01-13T01:36:03.557Z,21.58
2018-01-13T01:38:29.964Z,23.62
2018-01-13T01:40:56.404Z,22.95
2018-01-13T01:43:22.865Z,21.17
2018-01-13T01:45:49.284Z,21.20
2018-01-13T01:48:25.800Z,22.67
2018-01-13T01:50:52.580Z,21.00
2018-01-13T01:53:19.011Z,21.60
2018-01-13T01:55:45.456Z,21.00
2018-01-13T01:58:12.668Z,20.60
2018-01-13T02:00:39.133Z,20.30
2018-01-13T02:03:05.544Z,21.90
2018-01-13T02:05:31.969Z,20.60
2018-01-13T02:07:58.374Z,20.27
2018-01-13T02:10:25.055Z,20.48
2018-01-13T02:12:51.494Z,22.40
2018-01-13T02:15:17.937Z,21.95
2018-01-13T02:17:44.374Z,21.25
2018-01-13T02:20:10.817Z,20.25
2018-01-13T02:22:37.265Z,20.12
2018-01-13T02:25:03.688Z,20.23
2018-01-13T02:27:30.136Z,20.17
2018-01-13T02:29:56.552Z,19.20
2018-01-13T02:32:23.857Z,18.23
2018-01-13T02:34:50.252Z,18.87
2018-01-13T02:37:17.437Z,21.08
2018-01-13T02:39:43.853Z,17.95
2018-01-13T02:42:10.301Z,18.35
2018-01-13T02:44:36.777Z,19.75
2018-01-13T02:47:03.229Z,20.88
2018-01-13T02:49:29.706Z,17.00
2018-01-13T02:51:56.150Z,18.20
2018-01-13T02:54:22.590Z,18.15
2018-01-13T02:56:50.568Z,17.60
2018-01-13T02:59:18.009Z,17.77
2018-01-13T03:01:44.420Z,17.70
2018-01-13T03:04:10.853Z,17.55
2018-01-13T03:06:37.305Z,17.40
2018-01-13T03:09:03.846Z,19.23
2018-01-13T03:11:30.256Z,18.83
2018-01-13T03:13:56.687Z,17.40
2018-01-13T03:16:23.106Z,18.95
2018-01-13T03:18:50.260Z,19.00
2018-01-13T03:21:17.476Z,19.27
2018-01-13T03:23:43.879Z,19.08
2018-01-13T03:26:10.328Z,19.02
2018-01-13T03:28:36.724Z,19.50
2018-01-13T03:31:03.121Z,19.30
2018-01-13T03:33:29.594Z,18.85
2018-01-13T03:35:56.056Z,19.33
2018-01-13T03:38:22.468Z,17.60
2018-01-13T03:40:48.943Z,17.12
2018-01-13T03:43:15.368Z,18.30
2018-01-13T03:45:41.779Z,17.65
2018-01-13T03:48:08.205Z,18.08
2018-01-13T03:50:34.652Z,17.10
2018-01-13T03:53:01.080Z,16.42
2018-01-13T03:55:27.472Z,19.73
2018-01-13T03:57:53.904Z,17.50
2018-01-13T04:00:21.040Z,19.15
2018-01-13T04:02:47.501Z,18.48
2018-01-13T04:05:13.891Z,18.83
2018-01-13T04:07:40.405Z,17.05
2018-01-13T04:10:06.828Z,17.27
2018-01-13T04:12:33.240Z,18.87
2018-01-13T04:14:59.676Z,18.55
2018-01-13T04:17:26.107Z,19.75
2018-01-13T04:19:52.532Z,16.80
2018-01-13T04:22:18.932Z,18.92
2018-01-13T04:24:45.341Z,19.50
2018-01-13T04:27:11.761Z,18.98
2018-01-13T04:29:38.181Z,17.92
2018-01-13T04:32:04.634Z,17.85
2018-01-13T04:34:31.107Z,16.95
2018-01-13T04:36:58.323Z,18.52
2018-01-13T04:39:24.744Z,19.25
2018-01-13T04:41:51.959Z,19.77
2018-01-13T04:44:18.382Z,17.23
2018-01-13T04:46:45.544Z,19.67
2018-01-13T04:49:11.979Z,17.12
2018-01-13T04:51:38.385Z,16.20
2018-01-13T04:54:05.560Z,16.73
2018-01-13T04:56:31.963Z,17.62
2018-01-13T04:58:59.125Z,17.17
2018-01-13T05:01:26.274Z,16.10
2018-01-13T05:03:53.453Z,16.10
2018-01-13T05:06:19.848Z,18.50
2018-01-13T05:08:47.053Z,17.73
2018-01-13T05:11:13.464Z,16.90
2018-01-13T05:13:39.909Z,18.00
2018-01-13T05:16:06.358Z,18.65
2018-01-13T05:18:32.754Z,18.45
2018-01-13T05:20:59.189Z,17.10
2018-01-13T05:23:25.608Z,18.42
2018-01-13T05:25:52.021Z,16.67
2018-01-13T05:28:19.155Z,15.73
2018-01-13T05:30:45.584Z,17.08
2018-01-13T05:33:11.977Z,16.42
2018-01-13T05:35:38.424Z,15.45
2018-01-13T05:38:04.874Z,15.88
2018-01-13T05:40:31.268Z,14.77
2018-01-13T05:42:57.694Z,14.38
2018-01-13T05:45:24.073Z,15.55
2018-01-13T05:47:50.505Z,13.98
2018-01-13T05:50:17.696Z,15.82
2018-01-13T05:52:44.865Z,15.38
2018-01-13T05:55:11.277Z,16.20
2018-01-13T05:57:38.462Z,15.63
2018-01-13T06:00:05.197Z,15.20
2018-01-13T06:02:31.630Z,16.40
2018-01-13T06:04:58.056Z,15.35
2018-01-13T06:07:24.522Z,14.70
2018-01-13T06:09:51.705Z,15.57
2018-01-13T06:12:18.858Z,15.63
2018-01-13T06:14:46.018Z,15.90
2018-01-13T06:17:12.450Z,16.27
2018-01-13T06:19:38.872Z,15.25
2018-01-13T06:22:05.328Z,16.30
2018-01-13T06:24:31.765Z,14.87
2018-01-13T06:26:58.420Z,15.18
2018-01-13T06:29:24.823Z,14.93
2018-01-13T06:31:51.975Z,15.20
2018-01-13T06:34:18.411Z,15.30
2018-01-13T06:36:44.861Z,14.68
2018-01-13T06:39:11.300Z,15.40
2018-01-13T06:41:37.701Z,16.12
2018-01-13T06:44:04.892Z,15.27
2018-01-13T06:46:31.362Z,15.52
2018-01-13T06:48:57.842Z,16.37
2018-01-13T06:51:24.384Z,16.15
2018-01-13T06:53:50.801Z,16.77
2018-01-13T06:56:18.224Z,17.58
2018-01-13T06:58:44.660Z,16.95
2018-01-13T07:01:11.076Z,16.90
2018-01-13T07:03:37.623Z,17.80
2018-01-13T07:06:04.122Z,16.37
2018-01-13T07:08:30.515Z,17.95
2018-01-13T07:10:57.029Z,17.17
2018-01-13T07:13:24.193Z,18.77
2018-01-13T07:15:50.609Z,16.83
2018-01-13T07:18:17.813Z,17.17
2018-01-13T07:20:44.288Z,18.65
2018-01-13T07:23:11.447Z,16.05
2018-01-13T07:25:38.619Z,18.35
2018-01-13T07:28:05.128Z,15.55
2018-01-13T07:30:32.295Z,16.73
2018-01-13T07:32:59.485Z,17.70
2018-01-13T07:35:25.942Z,19.10
2018-01-13T07:37:52.417Z,18.30
2018-01-13T07:40:18.841Z,17.92
2018-01-13T07:42:45.996Z,18.55
2018-01-13T07:45:12.456Z,17.62
2018-01-13T07:47:38.901Z,15.90
2018-01-13T07:50:05.378Z,17.98
2018-01-13T07:52:32.602Z,17.50
2018-01-13T07:54:59.117Z,16.52
2018-01-13T07:57:25.556Z,16.48
2018-01-13T07:59:52.004Z,18.30
2018-01-13T08:02:19.173Z,16.08
2018-01-13T08:04:45.624Z,16.90
2018-01-13T08:07:12.813Z,16.42
2018-01-13T08:09:39.280Z,16.50
2018-01-13T08:12:05.739Z,16.37
2018-01-13T08:14:32.918Z,14.40
2018-01-13T08:16:59.417Z,14.73
2018-01-13T08:19:26.571Z,16.45
2018-01-13T08:21:53.734Z,14.13
2018-01-13T08:24:20.225Z,14.30
2018-01-13T08:26:46.644Z,14.70
2018-01-13T08:29:13.076Z,15.73
2018-01-13T08:31:39.541Z,16.70
2018-01-13T08:34:05.973Z,15.73
2018-01-13T08:36:32.449Z,15.95
2018-01-13T08:38:58.866Z,15.07
2018-01-13T08:41:26.053Z,13.75
2018-01-13T08:43:52.485Z,14.07
2018-01-13T08:46:18.928Z,14.32
2018-01-13T08:48:45.423Z,14.13
2018-01-13T08:51:11.954Z,12.95
2018-01-13T08:53:38.425Z,16.60
2018-01-13T08:56:04.904Z,16.40
2018-01-13T08:58:32.236Z,12.55
2018-01-13T09:00:58.676Z,13.70
2018-01-13T09:03:25.116Z,13.30
2018-01-13T09:05:52.386Z,13.98
2018-01-13T09:08:19.613Z,13.43
2018-01-13T09:10:46.088Z,14.27
2018-01-13T09:13:12.525Z,12.93
2018-01-13T09:15:39.049Z,13.73
2018-01-13T09:18:05.477Z,14.30
2018-01-13T09:20:31.882Z,14.10
2018-01-13T09:22:58.356Z,14.00
2018-01-13T09:25:24.761Z,15.35
2018-01-13T09:27:51.950Z,14.43
2018-01-13T09:30:18.444Z,16.10
2018-01-13T09:32:44.862Z,15.63
2018-01-13T09:35:11.304Z,15.38
2018-01-13T09:37:37.749Z,15.43
2018-01-13T09:40:04.914Z,15.30
2018-01-13T09:42:31.344Z,15.10
2018-01-13T09:44:58.493Z,14.30
2018-01-13T09:47:24.953Z,14.52
2018-01-13T09:49:51.353Z,15.55
2018-01-13T09:52:17.822Z,14.75
2018-01-13T09:54:44.237Z,15.10
2018-01-13T09:57:11.968Z,19.80
2018-01-13T09:59:38.550Z,14.77
2018-01-13T10:02:04.978Z,16.58
2018-01-13T10:04:31.401Z,16.20
2018-01-13T10:06:57.824Z,15.07
2018-01-13T10:09:24.268Z,17.10
2018-01-13T10:11:50.736Z,16.33
2018-01-13T10:14:17.292Z,16.27
2018-01-13T10:16:43.784Z,18.58
2018-01-13T10:19:10.220Z,16.80
2018-01-13T10:21:36.736Z,17.35
2018-01-13T10:24:03.248Z,17.92
2018-01-13T10:26:29.678Z,17.02
2018-01-13T10:28:56.880Z,17.75
2018-01-13T10:31:23.276Z,17.80
2018-01-13T10:33:49.716Z,16.48
2018-01-13T10:36:16.158Z,17.12
2018-01-13T10:38:42.594Z,17.60
2018-01-13T10:41:09.340Z,17.02
2018-01-13T10:43:35.777Z,16.80
2018-01-13T10:46:02.225Z,17.58
2018-01-13T10:48:28.683Z,17.15
2018-01-13T10:50:55.124Z,18.20
2018-01-13T10:53:22.305Z,18.27
2018-01-13T10:55:48.734Z,18.15
2018-01-13T10:58:15.305Z,16.67
2018-01-13T11:00:41.783Z,20.45
2018-01-13T11:03:08.199Z,17.95
2018-01-13T11:05:34.638Z,18.35
2018-01-13T11:08:01.779Z,17.35
2018-01-13T11:10:28.221Z,17.52
2018-01-13T11:12:54.652Z,17.27
2018-01-13T11:15:21.062Z,17.73
2018-01-13T11:17:47.504Z,18.15
2018-01-13T11:20:13.937Z,19.20
2018-01-13T11:22:40.387Z,17.42
2018-01-13T11:25:06.788Z,20.92
2018-01-13T11:27:33.214Z,18.17
2018-01-13T11:30:00.444Z,17.25
2018-01-13T11:32:26.877Z,17.55
2018-01-13T11:34:53.320Z,17.23
2018-01-13T11:37:19.728Z,17.05
2018-01-13T11:39:46.139Z,15.55
2018-01-13T11:42:13.329Z,16.98
2018-01-13T11:44:39.747Z,17.37
2018-01-13T11:47:06.172Z,17.65
2018-01-13T11:49:32.675Z,16.62
2018-01-13T11:51:59.118Z,18.10
2018-01-13T11:54:25.513Z,17.67
2018-01-13T11:56:51.958Z,18.50
2018-01-13T11:59:18.404Z,16.55
2018-01-13T12:01:45.569Z,18.55
2018-01-13T12:04:12.725Z,22.17
2018-01-13T12:06:39.925Z,18.73
2018-01-13T12:09:06.368Z,17.00
2018-01-13T12:11:32.797Z,17.98
2018-01-13T12:13:59.274Z,17.10
2018-01-13T12:16:26.476Z,16.92
2018-01-13T12:18:52.902Z,16.33
2018-01-13T12:21:19.365Z,17.50
2018-01-13T12:23:45.821Z,17.25
2018-01-13T12:26:13.144Z,17.37
2018-01-13T12:28:39.649Z,18.45
2018-01-13T12:31:06.068Z,16.23
2018-01-13T12:33:32.557Z,16.17
2018-01-13T12:35:59.008Z,16.27
2018-01-13T12:38:26.216Z,16.40
2018-01-13T12:40:52.687Z,17.12
2018-01-13T12:43:19.861Z,18.33
2018-01-13T12:45:46.313Z,17.90
2018-01-13T12:48:12.741Z,16.08
2018-01-13T12:50:39.167Z,14.87
2018-01-13T12:53:05.686Z,15.98
2018-01-13T12:55:32.136Z,14.77
2018-01-13T12:57:58.638Z,16.62
2018-01-13T13:00:25.082Z,16.48
2018-01-13T13:02:51.534Z,17.00
2018-01-13T13:05:17.972Z,15.75
2018-01-13T13:07:44.394Z,17.08
2018-01-13T13:10:10.881Z,16.30
2018-01-13T13:12:37.297Z,17.25
2018-01-13T13:15:03.789Z,16.00
2018-01-13T13:17:30.997Z,16.42
2018-01-13T13:19:57.430Z,19.48
2018-01-13T13:22:23.842Z,16.92
2018-01-13T13:24:50.345Z,17.35
2018-01-13T13:27:17.609Z,16.85
2018-01-13T13:29:44.045Z,15.25
2018-01-13T13:32:10.469Z,16.95
2018-01-13T13:34:36.913Z,17.55
2018-01-13T13:37:03.366Z,16.75
2018-01-13T13:39:29.837Z,17.60
2018-01-13T13:41:56.284Z,18.02
2018-01-13T13:44:23.444Z,18.40
2018-01-13T13:46:49.872Z,18.35
2018-01-13T13:49:16.308Z,17.12
2018-01-13T13:51:42.771Z,17.62
2018-01-13T13:54:09.176Z,18.70
2018-01-13T13:56:35.627Z,18.00
2018-01-13T13:59:02.088Z,18.10
2018-01-13T14:01:29.017Z,17.27
2018-01-13T14:03:55.225Z,18.60
2018-01-13T14:06:21.644Z,17.05
2018-01-13T14:08:48.076Z,18.30
2018-01-13T14:11:14.575Z,18.67
2018-01-13T14:13:41.045Z,18.37
2018-01-13T14:16:08.201Z,19.30
2018-01-13T14:18:34.632Z,19.52
2018-01-13T14:21:01.092Z,19.42
2018-01-13T14:23:27.499Z,18.83
2018-01-13T14:25:54.283Z,19.10
2018-01-13T14:28:20.737Z,17.35
2018-01-13T14:30:47.257Z,19.02
2018-01-13T14:33:13.677Z,19.02
2018-01-13T14:35:40.105Z,21.55
2018-01-13T14:38:06.544Z,16.80
2018-01-13T14:40:32.976Z,19.27
2018-01-13T14:42:59.452Z,20.35
2018-01-13T14:45:25.868Z,18.10
2018-01-13T14:47:52.350Z,18.30
2018-01-13T14:50:18.765Z,19.77
2018-01-13T14:52:45.240Z,19.45
2018-01-13T14:55:11.688Z,17.37
2018-01-13T14:57:38.909Z,18.20
2018-01-13T15:00:05.408Z,18.45
2018-01-13T15:02:31.901Z,19.27
2018-01-13T15:04:58.732Z,19.73
2018-01-13T15:07:25.192Z,18.17
2018-01-13T15:09:51.704Z,17.12
2018-01-13T15:12:18.454Z,19.42
2018-01-13T15:14:44.878Z,17.00
2018-01-13T15:17:11.304Z,17.05
2018-01-13T15:19:37.752Z,18.45
2018-01-13T15:22:04.193Z,16.40
2018-01-13T15:24:30.660Z,16.52
2018-01-13T15:26:57.101Z,17.17
2018-01-13T15:29:23.558Z,16.65
2018-01-13T15:31:49.986Z,16.20
2018-01-13T15:34:16.440Z,16.65
2018-01-13T15:36:42.912Z,15.90
2018-01-13T15:39:09.389Z,16.48
2018-01-13T15:41:35.897Z,15.52
2018-01-13T15:44:02.365Z,18.52
2018-01-13T15:46:28.816Z,17.33
2018-01-13T15:48:55.305Z,17.55
2018-01-13T15:51:21.796Z,16.90
2018-01-13T15:53:48.261Z,16.85
2018-01-13T15:56:14.709Z,16.83
2018-01-13T15:58:41.261Z,16.98
2018-01-13T16:01:07.705Z,17.02
2018-01-13T16:03:34.167Z,18.05
2018-01-13T16:06:00.577Z,16.75
2018-01-13T16:08:26.996Z,16.17
2018-01-13T16:10:53.437Z,18.50
2018-01-13T16:13:19.884Z,19.17
2018-01-13T16:15:46.337Z,17.17
2018-01-13T16:18:12.790Z,19.40
2018-01-13T16:20:39.967Z,17.60
2018-01-13T16:23:06.448Z,18.60
2018-01-13T16:25:32.936Z,17.60
2018-01-13T16:27:59.423Z,20.08
2018-01-13T16:30:25.841Z,17.05
2018-01-13T16:32:52.322Z,17.77
2018-01-13T16:35:18.754Z,18.83
2018-01-13T16:37:45.184Z,17.73
2018-01-13T16:40:12.488Z,18.80
2018-01-13T16:42:38.894Z,22.42
2018-01-13T16:45:05.317Z,17.60
2018-01-13T16:47:31.779Z,18.40
2018-01-13T16:49:58.366Z,15.30
2018-01-13T16:52:25.510Z,18.33
2018-01-13T16:54:52.009Z,22.10
2018-01-13T16:57:18.449Z,18.50
2018-01-13T16:59:44.916Z,18.40
2018-01-13T17:02:12.461Z,17.35
2018-01-13T17:04:38.881Z,17.58
2018-01-13T17:07:05.287Z,18.90
2018-01-13T17:09:31.761Z,18.20
2018-01-13T17:11:58.253Z,17.65
2018-01-13T17:14:24.698Z,18.52
2018-01-13T17:16:51.145Z,18.15
2018-01-13T17:19:17.614Z,17.58
2018-01-13T17:21:44.049Z,16.80
2018-01-13T17:24:10.473Z,16.70
2018-01-13T17:26:37.682Z,18.17
2018-01-13T17:29:04.088Z,19.00
2018-01-13T17:31:30.544Z,17.42
2018-01-13T17:33:56.956Z,18.45
2018-01-13T17:36:23.460Z,17.83
2018-01-13T17:38:49.932Z,17.33
2018-01-13T17:41:16.377Z,17.92
2018-01-13T17:43:42.858Z,19.20
2018-01-13T17:46:10.032Z,16.60
2018-01-13T17:48:36.460Z,16.92
2018-01-13T17:51:02.920Z,17.45
2018-01-13T17:53:30.373Z,17.30
2018-01-13T17:55:56.819Z,18.90
2018-01-13T17:58:23.213Z,16.60
2018-01-13T18:00:49.950Z,17.70
2018-01-13T18:03:16.397Z,18.85
2018-01-13T18:05:42.823Z,16.37
2018-01-13T18:08:09.294Z,16.67
2018-01-13T18:10:35.729Z,16.50
2018-01-13T18:13:02.181Z,17.20
2018-01-13T18:15:28.637Z,17.62
2018-01-13T18:17:55.086Z,19.23
2018-01-13T18:20:21.540Z,20.08
2018-01-13T18:22:47.979Z,19.35
2018-01-13T18:25:14.725Z,16.45
2018-01-13T18:27:41.179Z,19.85
2018-01-13T18:30:08.372Z,18.05
2018-01-13T18:32:34.858Z,17.60
2018-01-13T18:35:01.313Z,18.92
2018-01-13T18:37:28.550Z,17.87
2018-01-13T18:39:54.979Z,18.17
2018-01-13T18:42:21.445Z,19.65
2018-01-13T18:44:47.884Z,19.00
2018-01-13T18:47:14.381Z,18.50
2018-01-13T18:49:40.803Z,17.73
2018-01-13T18:52:07.290Z,18.58
2018-01-13T18:54:33.752Z,17.73
2018-01-13T18:57:00.232Z,19.83
2018-01-13T18:59:27.646Z,19.23
2018-01-13T19:01:54.091Z,19.05
2018-01-13T19:04:20.510Z,18.50
2018-01-13T19:06:47.006Z,19.23
2018-01-13T19:09:13.422Z,20.33
2018-01-13T19:11:40.606Z,19.48
2018-01-13T19:14:07.050Z,18.95
2018-01-13T19:16:33.568Z,18.67
2018-01-13T19:19:00.252Z,18.00
2018-01-13T19:21:26.683Z,17.75
2018-01-13T19:23:53.097Z,18.70
2018-01-13T19:26:19.580Z,18.77
2018-01-13T19:28:46.746Z,17.02
2018-01-13T19:31:13.207Z,19.25
2018-01-13T19:33:39.692Z,19.90
2018-01-13T19:36:06.908Z,19.37
2018-01-13T19:38:33.386Z,18.62
2018-01-13T19:40:59.851Z,18.10
2018-01-13T19:43:26.278Z,18.73
2018-01-13T19:45:52.713Z,20.60
2018-01-13T19:48:19.169Z,20.15
2018-01-13T19:50:45.621Z,18.12
2018-01-13T19:53:12.096Z,19.37
2018-01-13T19:55:39.309Z,19.60
2018-01-13T19:58:05.780Z,19.83
2018-01-13T20:00:32.281Z,18.90
2018-01-13T20:02:59.500Z,19.02
2018-01-13T20:05:25.949Z,18.48
2018-01-13T20:07:52.418Z,19.35
2018-01-13T20:10:18.838Z,19.92
2018-01-13T20:12:46.053Z,20.70
2018-01-13T20:15:12.529Z,21.20
2018-01-13T20:17:39.358Z,22.70
2018-01-13T20:20:06.046Z,23.33
2018-01-13T20:22:32.645Z,24.85
2018-01-13T20:24:59.092Z,21.33
2018-01-13T20:27:25.517Z,22.98
2018-01-13T20:29:52.707Z,21.23
2018-01-13T20:32:19.179Z,23.40
2018-01-13T20:34:45.638Z,22.73
2018-01-13T20:37:12.824Z,23.00
2018-01-13T20:39:39.269Z,24.30
2018-01-13T20:42:05.698Z,22.60
2018-01-13T20:44:32.181Z,23.45
2018-01-13T20:46:58.638Z,27.98
2018-01-13T20:49:25.115Z,23.27
2018-01-13T20:51:52.321Z,21.90
2018-01-13T20:54:18.946Z,22.17
2018-01-13T20:56:46.146Z,22.85
2018-01-13T20:59:12.592Z,20.30
2018-01-13T21:01:39.042Z,19.55
2018-01-13T21:04:05.980Z,20.50
2018-01-13T21:06:32.434Z,20.33
2018-01-13T21:08:59.609Z,19.95
2018-01-13T21:11:26.063Z,19.48
2018-01-13T21:13:52.525Z,21.55
2018-01-13T21:16:18.974Z,20.15
2018-01-13T21:18:46.182Z,19.08
2018-01-13T21:21:12.680Z,19.37
2018-01-13T21:23:40.077Z,21.00
2018-01-13T21:26:07.187Z,19.90
2018-01-13T21:28:33.612Z,21.48
2018-01-13T21:31:00.305Z,20.30
2018-01-13T21:33:26.759Z,20.62
2018-01-13T21:35:53.214Z,20.02
2018-01-13T21:38:20.396Z,19.02
2018-01-13T21:40:46.848Z,22.50
2018-01-13T21:43:13.295Z,20.92
2018-01-13T21:45:39.756Z,20.35
2018-01-13T21:48:06.201Z,20.05
2018-01-13T21:50:33.376Z,21.35
2018-01-13T21:52:59.873Z,21.95
2018-01-13T21:55:27.139Z,21.80
2018-01-13T21:57:54.363Z,21.85
2018-01-13T22:00:20.805Z,20.33
2018-01-13T22:02:47.199Z,19.23
2018-01-13T22:05:13.608Z,19.08
2018-01-13T22:07:40.928Z,19.42
2018-01-13T22:10:07.398Z,19.58
2018-01-13T22:12:34.619Z,20.10
2018-01-13T22:15:01.100Z,19.83
2018-01-13T22:17:28.270Z,19.90
2018-01-13T22:19:54.717Z,17.60
2018-01-13T22:22:21.077Z,18.33
2018-01-13T22:24:47.485Z,19.37
2018-01-13T22:27:13.870Z,19.87
2018-01-13T22:29:41.001Z,19.37
2018-01-13T22:32:07.360Z,20.85
2018-01-13T22:34:34.015Z,19.95
2018-01-13T22:37:00.436Z,22.33
2018-01-13T22:39:27.549Z,18.77
2018-01-13T22:41:53.942Z,19.83
2018-01-13T22:44:20.373Z,20.60
2018-01-13T22:46:46.809Z,18.40
2018-01-13T22:49:13.184Z,19.02
2018-01-13T22:51:39.574Z,19.08
2018-01-13T22:54:06.032Z,17.85
2018-01-13T22:56:32.408Z,19.10
2018-01-13T22:58:59.558Z,20.73
2018-01-13T23:01:26.666Z,18.45
2018-01-13T23:03:53.049Z,19.48
2018-01-13T23:06:19.440Z,18.35
2018-01-13T23:08:45.810Z,18.60
2018-01-13T23:11:12.952Z,18.65
2018-01-13T23:13:40.148Z,19.73
2018-01-13T23:16:07.378Z,18.20
2018-01-13T23:18:33.780Z,20.02
2018-01-13T23:21:00.228Z,19.30
2018-01-13T23:23:26.865Z,18.90
2018-01-13T23:25:53.325Z,18.87
2018-01-13T23:28:19.673Z,18.50
2018-01-13T23:30:46.109Z,17.05
2018-01-13T23:33:12.525Z,18.87
2018-01-13T23:35:38.978Z,20.70
2018-01-13T23:38:05.375Z,19.60
2018-01-13T23:40:32.714Z,17.95
2018-01-13T23:42:59.235Z,19.80
2018-01-13T23:45:25.760Z,18.27
2018-01-13T23:47:52.898Z,18.42
2018-01-13T23:50:19.381Z,18.85
2018-01-13T23:52:45.872Z,20.55
2018-01-13T23:55:12.256Z,18.70
2018-01-13T23:57:38.737Z,19.83
